METAR stanice u blizini

 

LYBE - Beograd / Surčin, Srbija
Ažurirano: 09/07/2020 00:00
Vedro
Vedro
 Pravac vetra JJI
Vetar: JJI 6 km/h
Temperatura: 19°C
Tačka rose: 11°C
Vlažnost: 60%
Pritisak: 1019 hPa
Pregled: Vedro
Vidljivost: greater than 10 km
2020/07/08 22:00 LYBE 082200Z 16003KT CAVOK 19/11 Q1019 NOSIG
LYBT - Beograd / Batajnica, Srbija
Ažurirano: 09/07/2020 00:00
Vedro
Vedro
 Pravac vetra calm
Vetar: Tišina
Temperatura: 15°C
Tačka rose: 11°C
Vlažnost: 77%
Pritisak: 1018 hPa
Pregled: Vedro
Vidljivost: greater than 10 km
2020/07/08 22:00 LYBT 082200Z 00000KT CAVOK 15/11 Q1018 NOSIG
LYVR - Vršac, Srbija
Ažurirano: 09/07/2020 00:00
Vedro
Vedro
 Pravac vetra varies
Vetar: varies 4 km/h
Temperatura: 14°C
Tačka rose: 11°C
Vlažnost: 82%
Pritisak: 1019 hPa
Pregled: Vedro
Vidljivost: greater than 10 km
2020/07/08 22:00 LYVR 082200Z AUTO VRB02KT CAVOK 14/11 Q1019
 
LYKV - Lađevci, Srbija
Ažurirano: 09/07/2020 00:00
Vedro
Vedro
 Pravac vetra varies
Vetar: varies 2 km/h
Temperatura: 13°C
Tačka rose: 13°C
Vlažnost: 100%
Pritisak: 1019 hPa
Pregled: Vedro
Vidljivost: greater than 10 km
2020/07/08 22:00 LYKV 082200Z VRB01KT CAVOK 13/13 Q1019 NOSIG
LYNI - Niš, Srbija
Ažurirano: 09/07/2020 00:00
Vedro
Vedro
 Pravac vetra I
Vetar: I 9 km/h
Temperatura: 16°C
Tačka rose: 11°C
Vlažnost: 72%
Pritisak: 1019 hPa
Pregled: Vedro
Vidljivost: greater than 10 km
2020/07/08 22:00 LYNI 082200Z 10005KT CAVOK 16/11 Q1019 NOSIG
BKPR - Priština, Srbija
Ažurirano: 09/07/2020 00:00
Vedro
Vedro
 Pravac vetra varies
Vetar: varies 2 km/h
Temperatura: 15°C
Tačka rose: 9°C
Vlažnost: 68%
Pritisak: 1020 hPa
Pregled: Vedro
Vidljivost: greater than 10 km
2020/07/08 22:00 BKPR 082200Z VRB01KT CAVOK 15/09 Q1020 NOSIG
 
LHPP - Pecs / Pogany, Hungary
Ažurirano: 08/07/2020 19:45
NOT Current
Vedro
Vedro
 Pravac vetra JJZ
Vetar: JJZ 9 km/h
Temperatura: 24°C
Tačka rose: 9°C
Vlažnost: 39%
Pritisak: 1017 hPa
Pregled: Vedro
Vidljivost: greater than 10 km
2020/07/08 17:45 LHPP 081745Z 20005KT CAVOK 24/09 Q1017
LHUD - Szeged, Hungary
Ažurirano: 09/07/2020 00:17
unable to load LHUD data RC=
unable to load LHUD data RC=
 
LRTR - Timisoara, Romania
Ažurirano: 09/07/2020 00:00
Vedro
Vedro
 Pravac vetra I
Vetar: I 7 km/h
Temperatura: 15°C
Tačka rose: 13°C
Vlažnost: 88%
Pritisak: 1018 hPa
Pregled: Vedro
Vidljivost: greater than 10 km
2020/07/08 22:00 LRTR 082200Z 09004KT CAVOK 15/13 Q1018
 
LRCV - Craiova, Romania
Ažurirano: 09/07/2020 00:17
unable to load LRCV data RC=
unable to load LRCV data RC=
 
LBSF - Sofia, Bulgaria
Ažurirano: 09/07/2020 00:00
Vedro
Vedro
 Pravac vetra I
Vetar: I 6 km/h
Temperatura: 15°C
Tačka rose: 12°C
Vlažnost: 82%
Pritisak: 1020 hPa
Pregled: Vedro
Vidljivost: greater than 10 km
2020/07/08 22:00 LBSF 082200Z 09003KT CAVOK 15/12 Q1020 NOSIG
LWSK - Skoplje, Makedonija
Ažurirano: 09/07/2020 00:00
Vedro
Vedro
 Pravac vetra Z
Vetar: Z 2 km/h
Temperatura: 15°C
Tačka rose: 10°C
Vlažnost: 72%
Pritisak: 1018 hPa
Pregled: Vedro
Vidljivost: greater than 10 km
2020/07/08 22:00 LWSK 082200Z 28001KT CAVOK 15/10 Q1018 NOSIG
 
LYPG - Podgorica, Crna Gora
Ažurirano: 09/07/2020 00:00
Vedro
Vedro
 Pravac vetra Z
Vetar: Z 9 km/h
Temperatura: 21°C
Tačka rose: 11°C
Vlažnost: 53%
Pritisak: 1015 hPa
Pregled: Vedro
Vidljivost: greater than 10 km
2020/07/08 22:00 LYPG 082200Z 27005KT CAVOK 21/11 Q1015 NOSIG
LQSA - Sarajevo, Bosna i Hercegovina
Ažurirano: 09/07/2020 00:00
Vedro
Vedro
 Pravac vetra JI
Vetar: JI 4 km/h
Temperatura: 14°C
Tačka rose: 12°C
Vlažnost: 88%
Pritisak: 1020 hPa
Pregled: Vedro
Vidljivost: greater than 10 km
2020/07/08 22:00 LQSA 082200Z 14002KT CAVOK 14/12 Q1020
LDOS - Osijek, Hrvatksa
Ažurirano: 09/07/2020 00:00
Vedro
Vedro
 Pravac vetra JI
Vetar: JI 6 km/h
Temperatura: 13°C
Tačka rose: 11°C
Vlažnost: 88%
Pritisak: 1018 hPa
Pregled: Vedro
Vidljivost: greater than 10 km
2020/07/08 22:00 LDOS 082200Z 14003KT CAVOK 13/11 Q1018